Time;durP1;ratioP1;P1;durP2;ratioP2;P2;SDS_P1;SDS_P2;PMS_P1;PMS_P2;Temp;Humidity;BMP_temperature;BMP_pressure;BME280_temperature;BME280_humidity;BME280_pressure;Samples;Min_cycle;Max_cycle;Signal;HPM_P1;HPM_P2
2023/12/16 00:00:05;;;;;;;;;;;;;;;22.91;35.30;103748.47;5015080;28;20284;-46
2023/12/16 00:02:30;;;;;;;;;;;;;;;22.90;35.46;103752.19;5041233;28;19918;-44
2023/12/16 00:04:55;;;;;;;;;;;;;;;22.87;35.47;103750.53;5038177;28;19985;-45
2023/12/16 00:07:21;;;;;;;;;;;;;;;22.82;35.50;103741.06;5006331;28;19917;-44
2023/12/16 00:09:46;;;;;;;;;;;;;;;22.76;35.76;103745.13;5030475;28;19971;-44
2023/12/16 00:12:11;;;;;;;;;;;;;;;22.72;35.67;103743.66;5070205;28;19949;-46
2023/12/16 00:14:36;;;;;;;;;;;;;;;22.68;35.63;103744.88;5021364;28;19917;-48
2023/12/16 00:17:02;;;;;;;;;;;;;;;22.64;35.74;103737.97;5058736;28;19923;-46
2023/12/16 00:19:27;;;;;;;;;;;;;;;22.60;35.66;103740.09;5033695;28;19921;-46
2023/12/16 00:21:52;;;;;;;;;;;;;;;22.57;35.96;103748.47;5027586;28;20322;-46
2023/12/16 00:24:17;;;;;;;;;;;;;;;22.55;35.75;103761.28;5021331;28;19921;-47
2023/12/16 00:26:42;;;;;;;;;;;;;;;22.55;35.79;103761.28;5036831;28;19993;-45
2023/12/16 00:29:08;;;;;;;;;;;;;;;22.51;36.05;103759.81;5035385;28;19912;-46
2023/12/16 00:31:33;;;;;;;;;;;;;;;22.46;35.99;103760.19;5043930;28;19940;-44
2023/12/16 00:33:58;;;;;;;;;;;;;;;22.46;35.93;103759.31;5033358;28;19925;-44
2023/12/16 00:36:23;;;;;;;;;;;;;;;22.44;36.00;103748.63;5028526;28;19956;-45
2023/12/16 00:38:48;;;;;;;;;;;;;;;22.41;36.03;103748.84;5014452;28;19913;-44
2023/12/16 00:41:13;;;;;;;;;;;;;;;22.39;36.43;103736.44;5012358;28;19917;-48
2023/12/16 00:43:39;;;;;;;;;;;;;;;22.32;36.30;103737.88;5028649;28;19922;-46
2023/12/16 00:46:04;;;;;;;;;;;;;;;22.27;36.23;103730.13;5026851;28;20420;-44
2023/12/16 00:48:29;;;;;;;;;;;;;;;22.26;36.18;103736.53;5026855;28;20369;-46
2023/12/16 00:50:54;;;;;;;;;;;;;;;22.27;36.20;103731.97;5027860;28;20004;-44
2023/12/16 00:53:20;;;;;;;;;;;;;;;22.28;36.50;103721.00;5009171;28;19914;-46
2023/12/16 00:55:45;;;;;;;;;;;;;;;22.27;36.27;103716.59;5013477;28;19922;-45
2023/12/16 00:58:10;;;;;;;;;;;;;;;22.29;36.41;103709.16;5072790;28;19964;-45
2023/12/16 01:00:35;;;;;;;;;;;;;;;22.29;36.29;103706.47;5030088;28;19956;-43
2023/12/16 01:03:00;;;;;;;;;;;;;;;22.30;36.04;103713.63;5025660;28;19953;-46
2023/12/16 01:05:26;;;;;;;;;;;;;;;22.26;36.13;103713.97;5035833;28;19935;-45
2023/12/16 01:07:51;;;;;;;;;;;;;;;22.27;36.05;103718.44;5017377;28;20418;-48
2023/12/16 01:10:16;;;;;;;;;;;;;;;22.24;36.41;103715.97;5021048;28;19924;-47
2023/12/16 01:12:42;;;;;;;;;;;;;;;22.21;36.52;103723.31;5067692;28;19962;-43
2023/12/16 01:15:08;;;;;;;;;;;;;;;22.21;36.26;103722.47;5025526;28;20012;-48
2023/12/16 01:17:33;;;;;;;;;;;;;;;22.19;36.18;103717.19;5032018;28;19913;-50
2023/12/16 01:19:58;;;;;;;;;;;;;;;22.18;36.55;103709.19;5042433;28;19913;-45
2023/12/16 01:22:23;;;;;;;;;;;;;;;22.16;36.24;103717.41;5018130;28;20034;-46
2023/12/16 01:24:49;;;;;;;;;;;;;;;22.15;36.46;103731.09;5006539;28;19975;-48
2023/12/16 01:27:14;;;;;;;;;;;;;;;22.15;36.39;103729.25;5084279;28;19951;-45
2023/12/16 01:29:39;;;;;;;;;;;;;;;22.14;36.28;103732.97;5020209;28;19917;-48
2023/12/16 01:32:04;;;;;;;;;;;;;;;22.13;36.47;103731.25;5017580;28;19914;-46
2023/12/16 01:34:29;;;;;;;;;;;;;;;22.13;36.26;103739.38;5026100;28;20399;-47
2023/12/16 01:36:55;;;;;;;;;;;;;;;22.10;36.42;103739.56;5020524;28;19912;-44
2023/12/16 01:39:20;;;;;;;;;;;;;;;22.07;36.63;103739.81;5009336;28;20364;-46
2023/12/16 01:41:45;;;;;;;;;;;;;;;22.08;36.25;103732.53;5039814;28;19971;-44
2023/12/16 01:44:10;;;;;;;;;;;;;;;22.08;36.29;103729.81;5023671;28;19913;-45
2023/12/16 01:46:35;;;;;;;;;;;;;;;22.07;36.35;103730.81;5018130;28;19920;-45
2023/12/16 01:49:01;;;;;;;;;;;;;;;22.06;36.47;103735.38;5021524;28;19914;-46
2023/12/16 01:51:27;;;;;;;;;;;;;;;22.03;36.48;103730.19;5030683;28;19917;-44
2023/12/16 01:53:52;;;;;;;;;;;;;;;22.00;36.34;103724.16;5034413;28;20292;-48
2023/12/16 01:56:17;;;;;;;;;;;;;;;21.99;36.27;103726.00;5054132;28;19923;-47
2023/12/16 01:58:43;;;;;;;;;;;;;;;21.95;36.61;103722.66;5041901;28;19932;-46
2023/12/16 02:01:08;;;;;;;;;;;;;;;21.92;36.63;103722.94;5019453;28;19965;-46
2023/12/16 02:03:33;;;;;;;;;;;;;;;21.91;36.48;103731.16;5029304;28;19977;-47
2023/12/16 02:05:58;;;;;;;;;;;;;;;21.89;36.75;103727.72;5070672;28;19925;-45
2023/12/16 02:08:24;;;;;;;;;;;;;;;21.87;36.51;103724.25;5053133;28;19916;-46
2023/12/16 02:10:49;;;;;;;;;;;;;;;21.84;36.64;103727.22;5050682;28;19917;-48
2023/12/16 02:13:15;;;;;;;;;;;;;;;21.84;36.68;103740.75;5040194;28;19914;-47
2023/12/16 02:15:40;;;;;;;;;;;;;;;21.80;36.77;103732.00;5031335;28;20367;-44
2023/12/16 02:18:05;;;;;;;;;;;;;;;21.78;36.65;103736.66;5030838;28;19921;-50
2023/12/16 02:20:31;;;;;;;;;;;;;;;21.42;36.86;103680.81;5017437;28;19913;-45
2023/12/16 02:22:56;;;;;;;;;;;;;;;21.75;36.69;103745.06;5044874;28;19917;-47
2023/12/16 02:25:21;;;;;;;;;;;;;;;21.73;36.75;103735.31;5074187;28;19967;-48
2023/12/16 02:27:46;;;;;;;;;;;;;;;21.72;36.74;103731.75;5041294;28;19963;-47
2023/12/16 02:30:11;;;;;;;;;;;;;;;21.70;36.70;103725.56;5030694;28;19912;-45
2023/12/16 02:32:37;;;;;;;;;;;;;;;21.70;36.75;103728.28;5014204;28;19914;-46
2023/12/16 02:35:02;;;;;;;;;;;;;;;21.67;37.01;103718.56;5014371;28;19921;-48
2023/12/16 02:37:27;;;;;;;;;;;;;;;21.64;37.15;103715.22;5019913;28;19936;-47
2023/12/16 02:39:52;;;;;;;;;;;;;;;21.62;37.10;103712.63;5072577;28;19963;-48
2023/12/16 02:42:18;;;;;;;;;;;;;;;21.60;36.79;103709.16;5022723;28;19916;-46
2023/12/16 02:44:43;;;;;;;;;;;;;;;21.59;36.89;103704.75;5063241;28;19946;-48
2023/12/16 02:47:08;;;;;;;;;;;;;;;21.57;36.98;103703.13;5016424;28;19925;-44
2023/12/16 02:49:33;;;;;;;;;;;;;;;21.55;37.04;103696.97;5012814;28;20013;-48
2023/12/16 02:51:58;;;;;;;;;;;;;;;21.54;37.22;103695.25;5023976;28;19917;-44
2023/12/16 02:54:24;;;;;;;;;;;;;;;21.53;36.89;103690.81;5046740;28;19932;-44
2023/12/16 02:56:49;;;;;;;;;;;;;;;21.51;37.13;103692.78;5025806;28;19912;-47
2023/12/16 02:59:14;;;;;;;;;;;;;;;21.50;36.99;103696.47;5027211;28;19983;-47
2023/12/16 03:01:39;;;;;;;;;;;;;;;21.48;37.23;103687.59;5038957;28;19935;-47
2023/12/16 03:04:04;;;;;;;;;;;;;;;21.44;37.06;103685.13;5009599;28;19918;-46
2023/12/16 03:06:30;;;;;;;;;;;;;;;21.42;37.06;103689.81;5026574;28;19914;-46
2023/12/16 03:08:55;;;;;;;;;;;;;;;21.41;37.37;103693.50;5033677;28;19937;-46
2023/12/16 03:11:20;;;;;;;;;;;;;;;21.41;37.02;103689.94;5026309;28;20560;-45
2023/12/16 03:13:45;;;;;;;;;;;;;;;21.39;37.31;103695.44;5019033;28;19921;-46
2023/12/16 03:16:10;;;;;;;;;;;;;;;21.37;37.29;103691.16;5035327;28;19935;-46
2023/12/16 03:18:36;;;;;;;;;;;;;;;21.35;37.12;103693.09;5022880;28;19920;-48
2023/12/16 03:21:04;;;;;;;;;;;;;;;21.33;37.28;103695.06;5020757;28;19955;-45
2023/12/16 03:23:30;;;;;;;;;;;;;;;21.31;37.42;103695.13;5041908;28;19965;-46
2023/12/16 03:25:55;;;;;;;;;;;;;;;21.29;37.13;103699.81;5033960;28;20487;-49
2023/12/16 03:28:20;;;;;;;;;;;;;;;21.28;37.25;103691.78;5071296;28;19971;-47
2023/12/16 03:30:45;;;;;;;;;;;;;;;21.26;37.26;103686.50;5037665;28;19918;-45
2023/12/16 03:33:10;;;;;;;;;;;;;;;21.25;37.21;103686.63;5046681;28;19912;-48
2023/12/16 03:35:36;;;;;;;;;;;;;;;21.22;37.43;103674.19;5035627;28;19919;-46
2023/12/16 03:38:01;;;;;;;;;;;;;;;21.21;37.36;103676.03;5049140;28;19918;-48
2023/12/16 03:40:27;;;;;;;;;;;;;;;21.19;36.98;103677.13;5065262;28;19914;-47
2023/12/16 03:42:52;;;;;;;;;;;;;;;21.18;37.42;103683.53;5011555;28;20019;-45
2023/12/16 03:45:17;;;;;;;;;;;;;;;21.16;37.25;103678.25;5024360;28;19971;-44
2023/12/16 03:47:42;;;;;;;;;;;;;;;21.15;37.48;103678.34;5023187;28;19921;-47
2023/12/16 03:50:07;;;;;;;;;;;;;;;21.13;37.51;103678.47;5019969;28;19913;-48
2023/12/16 03:52:33;;;;;;;;;;;;;;;21.11;37.37;103680.44;5037281;28;19918;-44
2023/12/16 03:54:58;;;;;;;;;;;;;;;21.10;37.23;103684.09;5037894;28;19922;-45
2023/12/16 03:57:23;;;;;;;;;;;;;;;21.09;37.54;103697.75;5022006;28;19917;-46
2023/12/16 03:59:48;;;;;;;;;;;;;;;21.07;37.40;103694.28;5019370;28;19918;-49
2023/12/16 04:02:13;;;;;;;;;;;;;;;21.05;37.72;103697.13;5022823;28;19922;-45
2023/12/16 04:04:38;;;;;;;;;;;;;;;21.04;37.66;103699.94;5029766;28;19924;-45
2023/12/16 04:07:04;;;;;;;;;;;;;;;21.02;37.57;103705.44;5070439;28;19949;-46
2023/12/16 04:09:29;;;;;;;;;;;;;;;21.01;37.80;103716.41;5063792;28;19914;-44
2023/12/16 04:11:54;;;;;;;;;;;;;;;20.99;37.63;103718.38;5023926;28;19926;-46
2023/12/16 04:14:19;;;;;;;;;;;;;;;20.97;37.65;103724.72;5006909;28;19924;-46
2023/12/16 04:16:45;;;;;;;;;;;;;;;20.96;37.38;103719.44;5025022;28;19917;-46
2023/12/16 04:19:11;;;;;;;;;;;;;;;20.94;37.70;103721.38;5022672;28;19921;-46
2023/12/16 04:21:37;;;;;;;;;;;;;;;20.92;37.72;103712.53;5081938;28;20465;-47
2023/12/16 04:24:02;;;;;;;;;;;;;;;20.89;37.66;103716.31;5033183;28;19955;-45
2023/12/16 04:26:27;;;;;;;;;;;;;;;20.87;37.91;103715.59;5024532;28;19921;-45
2023/12/16 04:28:53;;;;;;;;;;;;;;;20.85;37.88;103725.63;5068699;28;19941;-47
2023/12/16 04:31:19;;;;;;;;;;;;;;;20.84;37.79;103717.66;5014479;28;19949;-44
2023/12/16 04:33:44;;;;;;;;;;;;;;;20.81;37.86;103715.16;5028487;28;19923;-47
2023/12/16 04:36:14;;;;;;;;;;;;;;;20.78;37.85;103713.56;4999403;28;19921;-46
2023/12/16 04:38:39;;;;;;;;;;;;;;;20.77;37.94;103714.50;5017386;28;20376;-44
2023/12/16 04:41:19;;;;;;;;;;;;;;;20.76;38.00;103703.81;5040734;28;19913;-46
2023/12/16 04:43:45;;;;;;;;;;;;;;;20.75;38.19;103696.69;5005401;28;19968;-45
2023/12/16 04:46:10;;;;;;;;;;;;;;;20.74;38.35;103703.94;5016910;28;19918;-45
2023/12/16 04:48:35;;;;;;;;;;;;;;;20.74;38.32;103695.84;5023102;28;19916;-47
2023/12/16 04:51:06;;;;;;;;;;;;;;;20.74;38.43;103695.84;5022598;28;19925;-45
2023/12/16 04:53:32;;;;;;;;;;;;;;;20.72;38.07;103695.94;5069329;28;19916;-43
2023/12/16 04:55:57;;;;;;;;;;;;;;;20.71;38.38;103688.81;5019182;28;19960;-45
2023/12/16 04:58:22;;;;;;;;;;;;;;;20.70;38.52;103689.78;5022062;28;19940;-46
2023/12/16 05:00:47;;;;;;;;;;;;;;;20.70;38.63;103686.22;5004584;28;19925;-44
2023/12/16 05:03:13;;;;;;;;;;;;;;;20.68;38.70;103678.22;5078251;28;19918;-45
2023/12/16 05:05:38;;;;;;;;;;;;;;;20.68;38.48;103689.03;5069824;28;19977;-44
2023/12/16 05:08:03;;;;;;;;;;;;;;;20.68;38.67;103686.31;5013025;28;20462;-44
2023/12/16 05:10:28;;;;;;;;;;;;;;;20.67;38.54;103679.19;5006407;28;19955;-44
2023/12/16 05:12:54;;;;;;;;;;;;;;;20.64;38.73;103678.56;5023078;28;19918;-45
2023/12/16 05:15:19;;;;;;;;;;;;;;;20.63;38.69;103683.09;5007286;28;19941;-47
2023/12/16 05:17:44;;;;;;;;;;;;;;;20.62;38.93;103688.63;5033110;28;19964;-43
2023/12/16 05:20:09;;;;;;;;;;;;;;;20.61;38.60;103695.03;5022166;28;19916;-44
2023/12/16 05:22:34;;;;;;;;;;;;;;;20.60;38.98;103693.25;5012033;28;19922;-44
2023/12/16 05:25:01;;;;;;;;;;;;;;;20.59;39.02;103684.28;5021239;28;19920;-45
2023/12/16 05:27:26;;;;;;;;;;;;;;;20.58;38.86;103687.13;5026537;28;19925;-43
2023/12/16 05:29:51;;;;;;;;;;;;;;;20.57;38.71;103688.09;5010071;28;19913;-50
2023/12/16 05:32:16;;;;;;;;;;;;;;;20.56;38.99;103689.94;5044783;28;19916;-45
2023/12/16 05:34:41;;;;;;;;;;;;;;;20.56;39.06;103691.75;5032653;28;19914;-44
2023/12/16 05:37:07;;;;;;;;;;;;;;;20.54;39.15;103691.03;5073494;28;19921;-44
2023/12/16 05:39:32;;;;;;;;;;;;;;;20.53;39.21;103683.91;5086961;28;19918;-46
2023/12/16 05:41:57;;;;;;;;;;;;;;;20.52;38.90;103685.75;5011139;28;19914;-46
2023/12/16 05:44:22;;;;;;;;;;;;;;;20.50;38.91;103679.56;5027120;28;19927;-45
2023/12/16 05:46:47;;;;;;;;;;;;;;;20.50;38.94;103689.53;5015801;28;20429;-44
2023/12/16 05:49:12;;;;;;;;;;;;;;;20.49;39.14;103691.38;5072791;28;19914;-44
2023/12/16 05:51:39;;;;;;;;;;;;;;;20.47;39.07;103688.75;5021575;28;19991;-45
2023/12/16 05:54:04;;;;;;;;;;;;;;;20.46;38.83;103692.41;5005795;28;19922;-47
2023/12/16 05:56:29;;;;;;;;;;;;;;;20.44;38.93;103683.56;5015559;28;19979;-45
2023/12/16 05:58:55;;;;;;;;;;;;;;;20.44;38.89;103674.59;5023957;28;19925;-46
2023/12/16 06:01:20;;;;;;;;;;;;;;;20.43;39.07;103681.84;5024581;28;20000;-46
2023/12/16 06:03:46;;;;;;;;;;;;;;;20.42;38.85;103679.22;5032527;28;19925;-48
2023/12/16 06:06:11;;;;;;;;;;;;;;;20.41;39.11;103675.66;5023237;28;19929;-48
2023/12/16 06:08:36;;;;;;;;;;;;;;;20.40;38.92;103684.75;5009481;28;19925;-46
2023/12/16 06:11:01;;;;;;;;;;;;;;;20.39;39.10;103690.25;5006611;28;19918;-45
2023/12/16 06:13:27;;;;;;;;;;;;;;;20.38;39.21;103680.44;5018956;28;19920;-49
2023/12/16 06:15:52;;;;;;;;;;;;;;;20.37;39.03;103684.13;5019340;28;20016;-47
2023/12/16 06:18:17;;;;;;;;;;;;;;;20.36;38.96;103682.38;5009010;28;20341;-46
2023/12/16 06:20:42;;;;;;;;;;;;;;;20.34;39.26;103692.44;5013858;28;19913;-46
2023/12/16 06:23:07;;;;;;;;;;;;;;;20.33;39.15;103690.72;5007922;28;19921;-46
2023/12/16 06:25:33;;;;;;;;;;;;;;;20.31;38.87;103692.69;5008121;28;19912;-47
2023/12/16 06:27:58;;;;;;;;;;;;;;;20.30;39.07;103696.31;5028474;28;19973;-45
2023/12/16 06:30:23;;;;;;;;;;;;;;;20.29;39.08;103700.00;5016826;28;19921;-49
2023/12/16 06:32:48;;;;;;;;;;;;;;;20.28;39.00;103703.69;5017338;28;20321;-46
2023/12/16 06:35:14;;;;;;;;;;;;;;;20.27;39.27;103701.97;5017934;28;19924;-47
2023/12/16 06:37:39;;;;;;;;;;;;;;;20.25;38.98;103702.06;5071603;28;19920;-48
2023/12/16 06:40:04;;;;;;;;;;;;;;;20.25;39.24;103693.09;5005246;28;20372;-47
2023/12/16 06:42:30;;;;;;;;;;;;;;;20.23;39.11;103702.19;5023613;28;19924;-46
2023/12/16 06:44:55;;;;;;;;;;;;;;;20.22;39.01;103703.16;5027650;28;20953;-44
2023/12/16 06:47:20;;;;;;;;;;;;;;;20.21;39.30;103706.81;5011333;28;19921;-46
2023/12/16 06:49:45;;;;;;;;;;;;;;;20.20;39.17;103707.78;5013120;28;19918;-45
2023/12/16 06:52:10;;;;;;;;;;;;;;;20.19;39.31;103710.63;5020518;28;19948;-47
2023/12/16 06:54:36;;;;;;;;;;;;;;;20.18;39.20;103711.59;5006886;28;19937;-48
2023/12/16 06:57:01;;;;;;;;;;;;;;;20.17;39.21;103713.41;5081344;28;19921;-46
2023/12/16 06:59:26;;;;;;;;;;;;;;;20.16;39.23;103714.38;5032646;28;19984;-46
2023/12/16 07:01:51;;;;;;;;;;;;;;;20.15;39.06;103711.81;5015055;28;20092;-46
2023/12/16 07:04:16;;;;;;;;;;;;;;;20.14;39.40;103704.69;5005442;28;19921;-47
2023/12/16 07:06:42;;;;;;;;;;;;;;;20.12;39.35;103706.63;5030783;28;19918;-48
2023/12/16 07:09:07;;;;;;;;;;;;;;;20.11;39.54;103703.06;5002759;28;19924;-45
2023/12/16 07:11:34;;;;;;;;;;;;;;;20.10;39.24;103700.47;5017153;28;19914;-47
2023/12/16 07:13:59;;;;;;;;;;;;;;;20.10;39.24;103697.78;5029621;28;19914;-44
2023/12/16 07:16:24;;;;;;;;;;;;;;;20.10;39.44;103708.56;5027788;28;19939;-47
2023/12/16 07:18:50;;;;;;;;;;;;;;;20.10;39.17;103704.03;5006295;28;20000;-46
2023/12/16 07:21:15;;;;;;;;;;;;;;;20.10;39.05;103701.34;5016747;28;19913;-45
2023/12/16 07:23:40;;;;;;;;;;;;;;;20.10;39.35;103705.88;5012912;28;20015;-44
2023/12/16 07:26:05;;;;;;;;;;;;;;;20.11;39.29;103710.28;5026184;28;20079;-44
2023/12/16 07:28:30;;;;;;;;;;;;;;;20.11;39.28;103707.59;5023604;28;19917;-45
2023/12/16 07:30:57;;;;;;;;;;;;;;;20.12;39.35;103709.31;5005428;28;19914;-44
2023/12/16 07:33:22;;;;;;;;;;;;;;;20.13;39.45;103701.09;5013648;28;19949;-46
2023/12/16 07:35:47;;;;;;;;;;;;;;;20.14;39.33;103713.66;5000336;28;19921;-46
2023/12/16 07:38:13;;;;;;;;;;;;;;;20.15;39.23;103711.81;5014276;28;19992;-44
2023/12/16 07:40:38;;;;;;;;;;;;;;;20.14;39.29;103708.25;5005769;28;19953;-45
2023/12/16 07:43:03;;;;;;;;;;;;;;;20.15;39.38;103709.97;5033606;28;19918;-44
2023/12/16 07:45:29;;;;;;;;;;;;;;;20.15;39.22;103712.66;5031440;28;19953;-43
2023/12/16 07:47:54;;;;;;;;;;;;;;;20.17;39.56;103715.25;5012971;28;19925;-45
2023/12/16 07:50:20;;;;;;;;;;;;;;;20.17;39.58;103710.72;5005629;28;19917;-43
2023/12/16 07:52:49;;;;;;;;;;;;;;;20.19;39.19;103710.63;5025290;28;19912;-47
2023/12/16 07:55:14;;;;;;;;;;;;;;;20.20;39.24;103715.91;5017388;28;19921;-46
2023/12/16 07:57:39;;;;;;;;;;;;;;;20.22;39.33;103721.22;5016580;28;19945;-45
2023/12/16 08:00:05;;;;;;;;;;;;;;;20.24;39.13;103721.97;5015379;28;19912;-46
2023/12/16 08:02:31;;;;;;;;;;;;;;;20.27;38.96;103729.00;5011398;28;19918;-44
2023/12/16 08:04:56;;;;;;;;;;;;;;;20.28;39.21;103731.56;5009103;28;19963;-43
2023/12/16 08:07:21;;;;;;;;;;;;;;;20.30;39.10;103735.00;5023422;28;19909;-46
2023/12/16 08:09:46;;;;;;;;;;;;;;;20.33;38.99;103736.66;5024701;28;19973;-47
2023/12/16 08:12:12;;;;;;;;;;;;;;;20.36;39.10;103744.53;5006623;28;20149;-44
2023/12/16 08:14:37;;;;;;;;;;;;;;;20.37;38.88;103741.72;5017979;28;20015;-44
2023/12/16 08:17:02;;;;;;;;;;;;;;;20.39;38.85;103739.78;5029694;28;19913;-44
2023/12/16 08:19:27;;;;;;;;;;;;;;;20.41;38.90;103745.94;5006256;28;19922;-44
2023/12/16 08:21:53;;;;;;;;;;;;;;;20.45;38.63;103744.75;5016736;28;20301;-44
2023/12/16 08:24:18;;;;;;;;;;;;;;;20.47;38.56;103744.63;5026928;28;19928;-43
2023/12/16 08:26:46;;;;;;;;;;;;;;;20.49;38.55;103744.56;5012063;28;19996;-46
2023/12/16 08:29:11;;;;;;;;;;;;;;;20.53;38.72;103746.94;5019280;28;19970;-43
2023/12/16 08:31:37;;;;;;;;;;;;;;;20.55;38.72;103738.69;5028958;28;20283;-43
2023/12/16 08:34:02;;;;;;;;;;;;;;;20.58;38.30;103743.88;5026964;28;20311;-44
2023/12/16 08:36:27;;;;;;;;;;;;;;;20.60;38.50;103737.41;5026850;28;19918;-43
2023/12/16 08:38:52;;;;;;;;;;;;;;;20.63;38.29;103750.69;5011890;28;20340;-44
2023/12/16 08:41:18;;;;;;;;;;;;;;;20.65;38.45;103759.56;5015669;28;19919;-45
2023/12/16 08:43:43;;;;;;;;;;;;;;;20.69;38.41;103765.63;5011134;28;19943;-45
2023/12/16 08:46:08;;;;;;;;;;;;;;;20.72;38.07;103759.97;5016173;28;19917;-44
2023/12/16 08:48:38;;;;;;;;;;;;;;;20.76;38.24;103763.31;5019452;28;20375;-44
2023/12/16 08:51:04;;;;;;;;;;;;;;;20.78;38.03;103759.53;5024407;28;20004;-43
2023/12/16 08:53:29;;;;;;;;;;;;;;;20.81;38.07;103769.25;5037349;28;20288;-43
2023/12/16 08:55:54;;;;;;;;;;;;;;;20.85;37.87;103776.16;5018409;28;19926;-46
2023/12/16 08:58:19;;;;;;;;;;;;;;;20.87;37.83;103777.78;5011789;28;19912;-46
2023/12/16 09:00:44;;;;;;;;;;;;;;;20.90;38.19;103766.75;5010336;28;19981;-46
2023/12/16 09:03:13;;;;;;;;;;;;;;;20.91;38.08;103768.47;5024922;28;19990;-47
2023/12/16 09:05:38;;;;;;;;;;;;;;;20.95;37.72;103775.38;5024692;28;19924;-45
2023/12/16 09:08:03;;;;;;;;;;;;;;;21.00;38.01;103780.47;5022289;28;19917;-45
2023/12/16 09:10:29;;;;;;;;;;;;;;;21.03;37.63;103782.94;5024215;28;19918;-48
2023/12/16 09:12:54;;;;;;;;;;;;;;;21.06;37.86;103776.41;5015005;28;19917;-48
2023/12/16 09:15:19;;;;;;;;;;;;;;;21.09;37.70;103784.31;5009252;28;20268;-47
2023/12/16 09:17:46;;;;;;;;;;;;;;;21.12;37.58;103792.22;5015602;28;19932;-46
2023/12/16 09:20:12;;;;;;;;;;;;;;;21.14;37.34;103803.78;5022255;28;20237;-45
2023/12/16 09:22:37;;;;;;;;;;;;;;;21.16;37.67;103802.69;5022949;28;19926;-49
2023/12/16 09:25:04;;;;;;;;;;;;;;;21.19;37.35;103799.75;5028526;28;19949;-48
2023/12/16 09:27:29;;;;;;;;;;;;;;;21.21;37.57;103811.34;5018410;28;19925;-45
2023/12/16 09:29:54;;;;;;;;;;;;;;;21.23;37.23;103808.50;5004493;28;19922;-44
2023/12/16 09:32:19;;;;;;;;;;;;;;;21.26;37.45;103816.41;5008920;28;19992;-46
2023/12/16 09:34:45;;;;;;;;;;;;;;;21.28;37.14;103814.47;5080444;28;19922;-44
2023/12/16 09:37:10;;;;;;;;;;;;;;;21.31;37.33;103816.91;5002824;28;20297;-45
2023/12/16 09:39:35;;;;;;;;;;;;;;;21.34;37.21;103818.56;5029556;28;19971;-47
2023/12/16 09:42:03;;;;;;;;;;;;;;;21.38;37.11;103820.06;5032507;28;19921;-46
2023/12/16 09:44:28;;;;;;;;;;;;;;;21.39;36.97;103819.09;5006192;28;19928;-47
2023/12/16 09:46:56;;;;;;;;;;;;;;;21.43;37.11;103821.44;5073912;28;20218;-48
2023/12/16 09:49:21;;;;;;;;;;;;;;;21.45;36.76;103819.50;5022432;28;19954;-47
2023/12/16 09:51:46;;;;;;;;;;;;;;;21.49;36.80;103825.53;5065902;28;19913;-46
2023/12/16 09:54:14;;;;;;;;;;;;;;;21.53;36.72;103820.75;5014848;28;19929;-48
2023/12/16 09:56:39;;;;;;;;;;;;;;;21.56;36.95;103820.53;5033118;28;20260;-43
2023/12/16 09:59:05;;;;;;;;;;;;;;;21.58;36.62;103822.16;5010666;28;20495;-46
2023/12/16 10:01:30;;;;;;;;;;;;;;;21.61;36.60;103821.03;5017612;28;19918;-47
2023/12/16 10:03:55;;;;;;;;;;;;;;;21.63;36.68;103809.13;5035962;28;20359;-46
2023/12/16 10:06:20;;;;;;;;;;;;;;;21.67;36.60;103809.75;5084376;28;19972;-48
2023/12/16 10:08:47;;;;;;;;;;;;;;;21.71;36.62;103813.97;5007845;28;19952;-44
2023/12/16 10:11:12;;;;;;;;;;;;;;;21.73;36.27;103812.00;5017332;28;19914;-47
2023/12/16 10:13:56;;;;;;;;;;;;;;;21.76;36.53;103817.19;5031614;28;19923;-45
2023/12/16 10:16:22;;;;;;;;;;;;;;;21.78;36.36;103807.06;5021027;28;19995;-47
2023/12/16 10:18:53;;;;;;;;;;;;;;;21.81;36.42;103814.13;5045263;28;19913;-48
2023/12/16 10:21:26;;;;;;;;;;;;;;;21.85;36.32;103819.19;5018949;28;19914;-45
2023/12/16 10:23:51;;;;;;;;;;;;;;;21.88;36.02;103812.69;5072886;28;19984;-45
2023/12/16 10:26:16;;;;;;;;;;;;;;;21.91;36.20;103817.84;5071895;28;19929;-44
2023/12/16 10:28:44;;;;;;;;;;;;;;;21.90;36.38;103810.69;5015554;28;19913;-46
2023/12/16 10:31:09;;;;;;;;;;;;;;;21.92;36.42;103800.63;5037503;28;19925;-46
2023/12/16 10:33:34;;;;;;;;;;;;;;;22.01;36.02;103804.47;5036700;28;19916;-47
2023/12/16 10:36:00;;;;;;;;;;;;;;;22.06;35.87;103811.25;5028170;28;19917;-46
2023/12/16 10:38:25;;;;;;;;;;;;;;;22.09;35.91;103799.28;5015151;28;19944;-46
2023/12/16 10:40:51;;;;;;;;;;;;;;;22.11;35.93;103798.19;5016447;28;19917;-48
2023/12/16 10:43:16;;;;;;;;;;;;;;;22.11;35.71;103794.63;5023039;28;19922;-45
2023/12/16 10:45:41;;;;;;;;;;;;;;;22.14;35.88;103806.13;5026411;28;19917;-46
2023/12/16 10:48:07;;;;;;;;;;;;;;;22.16;35.59;103798.72;5032322;28;19918;-44
2023/12/16 10:50:33;;;;;;;;;;;;;;;22.20;35.87;103797.50;5013849;28;19989;-45
2023/12/16 10:52:58;;;;;;;;;;;;;;;22.24;35.79;103798.13;5069597;28;19918;-45
2023/12/16 10:55:28;;;;;;;;;;;;;;;22.25;35.60;103796.28;5068250;28;19948;-47
2023/12/16 10:58:05;;;;;;;;;;;;;;;22.29;35.70;103795.06;5026299;28;19917;-47
2023/12/16 11:00:30;;;;;;;;;;;;;;;22.35;35.57;103784.59;5062712;28;20024;-46
2023/12/16 11:03:02;;;;;;;;;;;;;;;22.39;35.54;103782.50;5067132;28;19966;-44
2023/12/16 11:05:36;;;;;;;;;;;;;;;22.38;35.56;103781.63;5077504;28;19919;-45
2023/12/16 11:08:01;;;;;;;;;;;;;;;22.41;35.31;103778.66;5068464;28;19917;-43
2023/12/16 11:10:27;;;;;;;;;;;;;;;22.44;35.33;103764.88;5071535;28;20028;-43
2023/12/16 11:12:53;;;;;;;;;;;;;;;22.47;35.47;103763.75;5022228;28;19922;-46
2023/12/16 11:15:18;;;;;;;;;;;;;;;22.52;35.02;103769.69;5030171;28;19913;-46
2023/12/16 11:18:02;;;;;;;;;;;;;;;22.54;35.36;103764.13;5028327;28;19935;-44
2023/12/16 11:20:41;;;;;;;;;;;;;;;22.58;35.01;103762.91;5024722;28;19912;-47
2023/12/16 11:23:06;;;;;;;;;;;;;;;22.59;35.03;103767.31;5069894;28;19965;-44
2023/12/16 11:25:33;;;;;;;;;;;;;;;22.60;34.96;103753.66;5009745;28;19953;-45
2023/12/16 11:27:58;;;;;;;;;;;;;;;22.63;34.83;103750.69;5024729;28;20456;-43
2023/12/16 11:30:23;;;;;;;;;;;;;;;22.67;34.90;103745.88;5031940;28;19914;-47
2023/12/16 11:32:51;;;;;;;;;;;;;;;22.71;35.09;103740.06;5035180;28;20330;-43
2023/12/16 11:35:28;;;;;;;;;;;;;;;22.78;34.73;103734.16;5074601;28;19948;-44
2023/12/16 11:37:53;;;;;;;;;;;;;;;22.81;34.93;103723.94;5061978;28;19914;-43
2023/12/16 11:40:52;;;;;;;;;;;;;;;22.86;34.66;103724.41;5007139;28;19949;-44
2023/12/16 11:43:17;;;;;;;;;;;;;;;22.91;34.44;103726.78;5034385;28;19922;-44
2023/12/16 11:45:43;;;;;;;;;;;;;;;22.98;34.53;103717.13;5067166;28;20284;-44
2023/12/16 11:48:09;;;;;;;;;;;;;;;23.01;34.34;103716.84;5014294;28;20000;-46
2023/12/16 11:50:36;;;;;;;;;;;;;;;23.05;34.32;103717.47;5012101;28;19922;-44
2023/12/16 11:53:01;;;;;;;;;;;;;;;23.08;34.11;103714.50;5070828;28;19983;-45
2023/12/16 11:55:27;;;;;;;;;;;;;;;23.10;34.28;103715.22;5069781;28;19920;-46
2023/12/16 11:57:53;;;;;;;;;;;;;;;23.12;34.28;103722.25;5051598;28;20372;-46
2023/12/16 12:00:19;;;;;;;;;;;;;;;23.13;34.28;103712.25;5023758;28;19950;-44
2023/12/16 12:02:44;;;;;;;;;;;;;;;23.17;34.22;103713.72;5013039;28;19917;-47
2023/12/16 12:05:12;;;;;;;;;;;;;;;23.19;34.06;103709.03;5074851;28;19921;-44
2023/12/16 12:07:40;;;;;;;;;;;;;;;23.20;34.15;103699.91;5025761;28;19929;-44
2023/12/16 12:10:06;;;;;;;;;;;;;;;23.20;34.05;103699.91;5040378;28;19923;-43
2023/12/16 12:12:31;;;;;;;;;;;;;;;23.20;34.14;103691.78;5009740;28;19914;-44
2023/12/16 12:14:56;;;;;;;;;;;;;;;23.23;34.23;103691.47;5062341;28;19918;-46
2023/12/16 12:17:21;;;;;;;;;;;;;;;23.25;33.94;103686.81;5085113;28;19914;-43
2023/12/16 12:19:47;;;;;;;;;;;;;;;23.24;34.15;103690.53;5005544;28;19979;-44
2023/12/16 12:22:12;;;;;;;;;;;;;;;23.25;33.92;103689.53;5022102;28;19914;-44
2023/12/16 12:24:37;;;;;;;;;;;;;;;23.27;34.12;103684.81;5019348;28;19920;-44
2023/12/16 12:27:03;;;;;;;;;;;;;;;23.28;33.97;103682.94;5019051;28;19916;-43